createdAt,value
2022-12-05T00:01:02.665Z,7.25
2022-12-05T00:03:29.285Z,7.82
2022-12-05T00:05:55.774Z,7.20
2022-12-05T00:08:22.278Z,8.15
2022-12-05T00:10:48.798Z,7.35
2022-12-05T00:13:15.301Z,7.03
2022-12-05T00:15:41.870Z,8.18
2022-12-05T00:18:08.609Z,8.17
2022-12-05T00:20:35.179Z,8.38
2022-12-05T00:23:01.746Z,7.70
2022-12-05T00:25:28.522Z,8.02
2022-12-05T00:27:55.133Z,8.25
2022-12-05T00:30:21.631Z,8.20
2022-12-05T00:32:48.143Z,8.00
2022-12-05T00:35:14.724Z,9.32
2022-12-05T00:37:41.268Z,8.38
2022-12-05T00:40:08.408Z,8.15
2022-12-05T00:42:34.932Z,8.87
2022-12-05T00:45:01.498Z,9.48
2022-12-05T00:47:28.046Z,9.65
2022-12-05T00:49:54.718Z,8.18
2022-12-05T00:52:21.608Z,8.40
2022-12-05T00:54:48.212Z,8.80
2022-12-05T00:57:14.751Z,9.25
2022-12-05T00:59:41.305Z,9.90
2022-12-05T01:02:07.840Z,8.90
2022-12-05T01:04:34.359Z,9.02
2022-12-05T01:07:00.895Z,9.17
2022-12-05T01:09:27.607Z,8.52
2022-12-05T01:11:54.502Z,9.60
2022-12-05T01:14:23.307Z,8.57
2022-12-05T01:16:51.962Z,8.98
2022-12-05T01:19:22.187Z,9.23
2022-12-05T01:21:49.119Z,8.63
2022-12-05T01:24:17.185Z,9.50
2022-12-05T01:26:44.730Z,8.77
2022-12-05T01:29:14.040Z,10.68
2022-12-05T01:31:41.569Z,9.53
2022-12-05T01:34:11.929Z,8.75
2022-12-05T01:36:39.455Z,9.93
2022-12-05T01:39:07.314Z,9.30
2022-12-05T01:41:37.648Z,9.70
2022-12-05T01:44:05.859Z,8.57
2022-12-05T01:46:38.767Z,9.77
2022-12-05T01:49:10.115Z,7.47
2022-12-05T01:51:40.217Z,11.30
2022-12-05T01:54:08.928Z,10.32
2022-12-05T01:56:36.636Z,10.17
2022-12-05T01:59:05.563Z,10.63
2022-12-05T02:01:32.737Z,9.93
2022-12-05T02:03:59.732Z,11.00
2022-12-05T02:06:27.666Z,10.27
2022-12-05T02:08:54.531Z,10.93
2022-12-05T02:11:23.333Z,10.38
2022-12-05T02:14:11.685Z,10.75
2022-12-05T02:16:51.663Z,9.88
2022-12-05T02:19:48.436Z,10.20
2022-12-05T02:22:52.394Z,10.90
2022-12-05T02:25:39.643Z,10.02
2022-12-05T02:28:15.249Z,9.18
2022-12-05T02:30:48.075Z,9.63
2022-12-05T02:33:23.993Z,9.40
2022-12-05T02:36:02.277Z,10.80
2022-12-05T02:38:40.659Z,10.43
2022-12-05T02:41:31.674Z,11.23
2022-12-05T02:44:23.372Z,8.48
2022-12-05T02:46:52.510Z,9.13
2022-12-05T02:49:23.703Z,10.17
2022-12-05T02:51:55.071Z,10.30
2022-12-05T02:54:26.250Z,9.77
2022-12-05T02:56:54.513Z,11.02
2022-12-05T02:59:23.608Z,10.27
2022-12-05T03:01:51.452Z,10.30
2022-12-05T03:04:20.546Z,11.10
2022-12-05T03:06:53.832Z,10.40
2022-12-05T03:09:47.300Z,11.07
2022-12-05T03:12:25.501Z,10.35
2022-12-05T03:14:58.688Z,11.60
2022-12-05T03:17:31.699Z,11.15
2022-12-05T03:20:05.854Z,11.20
2022-12-05T03:22:40.826Z,10.88
2022-12-05T03:25:08.955Z,10.05
2022-12-05T03:27:45.263Z,9.53
2022-12-05T03:30:16.307Z,9.50
2022-12-05T03:32:49.688Z,11.35
2022-12-05T03:36:09.757Z,9.82
2022-12-05T03:38:50.855Z,9.23
2022-12-05T03:41:26.563Z,10.10
2022-12-05T03:44:11.823Z,10.32
2022-12-05T03:46:47.641Z,9.35
2022-12-05T03:49:34.686Z,10.48
2022-12-05T03:52:06.988Z,10.02
2022-12-05T03:54:47.351Z,8.67
2022-12-05T03:57:25.749Z,10.15
2022-12-05T04:00:10.723Z,9.15
2022-12-05T04:02:47.530Z,9.00
2022-12-05T04:05:18.837Z,9.38
2022-12-05T04:07:49.572Z,9.53
2022-12-05T04:10:22.864Z,8.43
2022-12-05T04:12:53.183Z,9.57
2022-12-05T04:15:26.969Z,9.35
2022-12-05T04:17:58.402Z,9.95
2022-12-05T04:20:52.904Z,8.83
2022-12-05T04:23:20.281Z,10.02
2022-12-05T04:26:12.264Z,10.00
2022-12-05T04:28:43.152Z,9.82
2022-12-05T04:31:44.022Z,9.80
2022-12-05T04:34:15.475Z,10.13
2022-12-05T04:36:47.293Z,9.00
2022-12-05T04:39:23.967Z,9.45
2022-12-05T04:41:58.531Z,9.63
2022-12-05T04:44:29.396Z,10.30
2022-12-05T04:47:00.150Z,9.60
2022-12-05T04:49:29.492Z,9.80
2022-12-05T04:51:59.397Z,9.45
2022-12-05T04:54:28.448Z,9.10
2022-12-05T04:57:02.129Z,8.95
2022-12-05T04:59:29.419Z,9.10
2022-12-05T05:02:00.529Z,10.13
2022-12-05T05:04:46.811Z,9.75
2022-12-05T05:07:13.923Z,9.50
2022-12-05T05:09:41.399Z,10.15
2022-12-05T05:12:08.240Z,9.63
2022-12-05T05:14:35.106Z,8.93
2022-12-05T05:17:01.692Z,10.45
2022-12-05T05:19:28.244Z,10.35
2022-12-05T05:21:54.843Z,9.48
2022-12-05T05:24:23.467Z,8.50
2022-12-05T05:26:55.549Z,9.30
2022-12-05T05:29:23.799Z,10.20
2022-12-05T05:31:50.457Z,9.88
2022-12-05T05:34:17.055Z,9.10
2022-12-05T05:36:44.052Z,8.37
2022-12-05T05:39:15.229Z,9.02
2022-12-05T05:41:42.600Z,9.30
2022-12-05T05:44:09.221Z,8.32
2022-12-05T05:46:36.852Z,9.60
2022-12-05T05:49:03.952Z,9.37
2022-12-05T05:51:30.630Z,9.25
2022-12-05T05:53:58.410Z,10.43
2022-12-05T05:56:25.395Z,9.57
2022-12-05T05:59:03.547Z,8.95
2022-12-05T06:01:30.123Z,8.77
2022-12-05T06:03:57.356Z,8.63
2022-12-05T06:06:24.406Z,8.48
2022-12-05T06:08:50.956Z,9.43
2022-12-05T06:11:26.366Z,8.32
2022-12-05T06:13:58.097Z,8.93
2022-12-05T06:16:25.152Z,8.45
2022-12-05T06:18:52.538Z,8.43
2022-12-05T06:21:19.893Z,8.48
2022-12-05T06:23:46.627Z,9.43
2022-12-05T06:26:16.824Z,8.37
2022-12-05T06:28:44.426Z,7.47
2022-12-05T06:31:20.883Z,8.38
2022-12-05T06:33:48.162Z,8.88
2022-12-05T06:36:17.656Z,9.18
2022-12-05T06:38:44.664Z,9.13
2022-12-05T06:41:16.474Z,7.82
2022-12-05T06:43:43.876Z,8.75
2022-12-05T06:46:12.531Z,8.73
2022-12-05T06:48:39.251Z,8.45
2022-12-05T06:51:08.478Z,9.47
2022-12-05T06:53:35.046Z,7.90
2022-12-05T06:56:05.488Z,8.30
2022-12-05T06:58:32.091Z,8.05
2022-12-05T07:01:17.607Z,7.80
2022-12-05T07:03:44.270Z,8.13
2022-12-05T07:06:11.605Z,8.68
2022-12-05T07:08:38.425Z,8.82
2022-12-05T07:11:05.115Z,8.60
2022-12-05T07:13:31.629Z,8.50
2022-12-05T07:15:59.077Z,8.07
2022-12-05T07:18:26.802Z,7.93
2022-12-05T07:21:13.871Z,8.10
2022-12-05T07:23:42.826Z,8.73
2022-12-05T07:26:13.853Z,7.18
2022-12-05T07:28:40.569Z,7.07
2022-12-05T07:31:10.763Z,8.05
2022-12-05T07:33:38.486Z,7.55
2022-12-05T07:36:11.329Z,7.05
2022-12-05T07:38:38.536Z,7.53
2022-12-05T07:41:11.741Z,7.33
2022-12-05T07:43:40.039Z,7.20
2022-12-05T07:46:08.027Z,6.93
2022-12-05T07:48:34.579Z,7.25
2022-12-05T07:51:03.628Z,7.88
2022-12-05T07:53:32.185Z,7.50
2022-12-05T07:56:00.605Z,6.43
2022-12-05T07:58:29.613Z,6.88
2022-12-05T08:00:57.031Z,6.05
2022-12-05T08:03:23.705Z,6.95
2022-12-05T08:05:50.585Z,5.80
2022-12-05T08:08:17.202Z,7.53
2022-12-05T08:10:43.786Z,6.60
2022-12-05T08:13:10.315Z,7.10
2022-12-05T08:15:36.895Z,7.25
2022-12-05T08:18:03.656Z,7.30
2022-12-05T08:20:30.641Z,7.32
2022-12-05T08:22:57.279Z,6.80
2022-12-05T08:25:23.985Z,7.32
2022-12-05T08:27:50.499Z,7.65
2022-12-05T08:30:17.218Z,7.27
2022-12-05T08:32:43.792Z,6.88
2022-12-05T08:35:10.424Z,6.88
2022-12-05T08:37:37.054Z,7.20
2022-12-05T08:40:04.422Z,7.50
2022-12-05T08:42:31.507Z,6.87
2022-12-05T08:44:58.315Z,7.22
2022-12-05T08:47:25.004Z,7.00
2022-12-05T08:49:51.499Z,6.78
2022-12-05T08:52:18.060Z,6.03
2022-12-05T08:54:44.785Z,6.43
2022-12-05T08:57:11.291Z,6.38
2022-12-05T08:59:37.872Z,6.38
2022-12-05T09:02:04.523Z,6.55
2022-12-05T09:04:31.120Z,6.65
2022-12-05T09:06:57.765Z,6.37
2022-12-05T09:09:24.432Z,6.93
2022-12-05T09:11:51.178Z,6.38
2022-12-05T09:14:18.457Z,6.13
2022-12-05T09:16:48.114Z,6.38
2022-12-05T09:19:21.016Z,6.80
2022-12-05T09:21:47.650Z,6.13
2022-12-05T09:24:14.648Z,6.53
2022-12-05T09:26:42.423Z,6.82
2022-12-05T09:29:16.257Z,6.30
2022-12-05T09:31:44.894Z,5.43
2022-12-05T09:34:13.371Z,5.85
2022-12-05T09:36:39.930Z,5.95
2022-12-05T09:39:06.998Z,8.43
2022-12-05T09:42:01.065Z,6.38
2022-12-05T09:44:46.280Z,7.57
2022-12-05T09:47:33.348Z,6.43
2022-12-05T09:50:21.163Z,7.72
2022-12-05T09:53:13.722Z,6.53
2022-12-05T09:55:51.809Z,6.05
2022-12-05T09:58:25.158Z,6.90
2022-12-05T10:00:59.761Z,7.00
2022-12-05T10:03:37.732Z,7.00
2022-12-05T10:06:13.688Z,7.10
2022-12-05T10:08:58.310Z,7.72
2022-12-05T10:11:37.216Z,7.30
2022-12-05T10:14:09.692Z,7.40
2022-12-05T10:16:49.933Z,7.10
2022-12-05T10:19:24.402Z,7.30
2022-12-05T10:21:59.002Z,6.25
2022-12-05T10:24:41.809Z,6.33
2022-12-05T10:27:15.947Z,7.18
2022-12-05T10:29:53.822Z,7.35
2022-12-05T10:32:27.239Z,7.18
2022-12-05T10:35:02.046Z,7.93
2022-12-05T10:37:30.888Z,8.20
2022-12-05T10:39:58.438Z,8.00
2022-12-05T10:42:35.428Z,8.10
2022-12-05T10:45:07.917Z,6.78
2022-12-05T10:47:35.802Z,7.55
2022-12-05T10:50:17.944Z,6.83
2022-12-05T10:52:44.871Z,6.63
2022-12-05T10:55:17.755Z,7.00
2022-12-05T10:57:50.439Z,7.32
2022-12-05T11:00:21.930Z,6.28
2022-12-05T11:02:49.601Z,6.77
2022-12-05T11:05:27.234Z,6.82
2022-12-05T11:07:55.580Z,6.95
2022-12-05T11:10:27.554Z,6.72
2022-12-05T11:12:56.740Z,6.57
2022-12-05T11:15:28.157Z,6.97
2022-12-05T11:17:57.039Z,7.35
2022-12-05T11:20:42.012Z,6.82
2022-12-05T11:23:29.965Z,7.00
2022-12-05T11:25:58.331Z,6.68
2022-12-05T11:28:31.500Z,6.30
2022-12-05T11:30:58.627Z,6.25
2022-12-05T11:33:27.666Z,7.18
2022-12-05T11:36:04.469Z,6.57
2022-12-05T11:38:32.799Z,6.30
2022-12-05T11:40:59.324Z,7.43
2022-12-05T11:43:54.966Z,7.63
2022-12-05T11:46:43.307Z,6.68
2022-12-05T11:49:47.530Z,6.97
2022-12-05T11:52:14.131Z,6.30
2022-12-05T11:55:10.691Z,6.67
2022-12-05T11:57:52.564Z,6.45
2022-12-05T12:00:49.327Z,6.85
2022-12-05T12:03:54.563Z,6.60
2022-12-05T12:06:45.885Z,5.70
2022-12-05T12:09:35.162Z,5.17
2022-12-05T12:12:47.619Z,5.72
2022-12-05T12:15:30.427Z,6.30
2022-12-05T12:18:09.063Z,5.40
2022-12-05T12:20:50.749Z,5.10
2022-12-05T12:23:29.615Z,4.27
2022-12-05T12:26:11.645Z,5.32
2022-12-05T12:28:51.236Z,4.68
2022-12-05T12:31:27.948Z,5.75
2022-12-05T12:34:25.535Z,5.40
2022-12-05T12:37:03.049Z,4.97
2022-12-05T12:39:50.865Z,5.35
2022-12-05T12:42:17.321Z,5.35
2022-12-05T12:45:02.323Z,4.80
2022-12-05T12:47:44.807Z,5.38
2022-12-05T12:50:28.677Z,5.33
2022-12-05T12:53:29.524Z,5.50
2022-12-05T12:56:11.304Z,5.13
2022-12-05T12:58:52.147Z,4.88
2022-12-05T13:01:33.922Z,5.05
2022-12-05T13:04:12.301Z,4.20
2022-12-05T13:06:50.095Z,3.25
2022-12-05T13:09:25.727Z,4.93
2022-12-05T13:11:54.786Z,4.53
2022-12-05T13:14:25.838Z,4.88
2022-12-05T13:16:54.691Z,4.50
2022-12-05T13:19:27.672Z,4.07
2022-12-05T13:21:57.318Z,3.70
2022-12-05T13:24:27.416Z,3.17
2022-12-05T13:26:59.256Z,3.80
2022-12-05T13:29:51.035Z,4.47
2022-12-05T13:32:36.254Z,3.45
2022-12-05T13:35:46.697Z,3.80
2022-12-05T13:38:49.803Z,3.88
2022-12-05T13:41:35.159Z,3.38
2022-12-05T13:44:12.323Z,3.67
2022-12-05T13:46:42.317Z,3.63
2022-12-05T13:49:31.588Z,3.58
2022-12-05T13:52:08.297Z,3.50
2022-12-05T13:54:41.743Z,2.83
2022-12-05T13:57:40.204Z,3.37
2022-12-05T14:00:10.248Z,2.78
2022-12-05T14:02:46.289Z,2.60
2022-12-05T14:05:18.667Z,2.65
2022-12-05T14:07:50.641Z,3.72
2022-12-05T14:10:23.422Z,3.00
2022-12-05T14:12:56.797Z,2.95
2022-12-05T14:15:48.149Z,3.13
2022-12-05T14:18:36.013Z,3.05
2022-12-05T14:21:22.250Z,2.65
2022-12-05T14:23:57.719Z,2.97
2022-12-05T14:27:07.606Z,3.50
2022-12-05T14:29:59.519Z,2.72
2022-12-05T14:32:42.390Z,3.35
2022-12-05T14:35:18.590Z,2.38
2022-12-05T14:38:05.990Z,2.83
2022-12-05T14:40:44.435Z,2.70
2022-12-05T14:43:20.164Z,2.50
2022-12-05T14:45:48.016Z,3.15
2022-12-05T14:48:14.555Z,2.70
2022-12-05T14:50:48.030Z,2.67
2022-12-05T14:53:20.619Z,3.10
2022-12-05T14:56:18.868Z,2.50
2022-12-05T14:59:09.785Z,2.40
2022-12-05T15:01:45.147Z,2.92
2022-12-05T15:04:11.704Z,2.47
2022-12-05T15:06:54.629Z,2.63
2022-12-05T15:09:50.639Z,2.90
2022-12-05T15:12:24.068Z,2.10
2022-12-05T15:15:25.739Z,2.72
2022-12-05T15:17:58.078Z,2.13
2022-12-05T15:20:40.893Z,2.47
2022-12-05T15:23:39.844Z,2.53
2022-12-05T15:26:45.397Z,2.30
2022-12-05T15:29:11.495Z,2.42
2022-12-05T15:31:44.312Z,2.50
2022-12-05T15:34:27.372Z,2.17
2022-12-05T15:37:08.923Z,2.00
2022-12-05T15:39:59.269Z,2.28
2022-12-05T15:42:29.906Z,2.42
2022-12-05T15:45:12.094Z,2.60
2022-12-05T15:47:40.103Z,2.53
2022-12-05T15:50:12.747Z,2.80
2022-12-05T15:52:45.927Z,2.20
2022-12-05T15:55:22.251Z,2.60
2022-12-05T15:57:58.494Z,2.40
2022-12-05T16:00:26.608Z,2.47
2022-12-05T16:03:26.020Z,2.58
2022-12-05T16:05:58.143Z,2.30
2022-12-05T16:08:25.353Z,2.15
2022-12-05T16:10:52.018Z,2.37
2022-12-05T16:13:24.159Z,2.85
2022-12-05T16:15:53.911Z,2.22
2022-12-05T16:18:30.217Z,2.05
2022-12-05T16:20:57.002Z,2.05
2022-12-05T16:23:30.027Z,2.40
2022-12-05T16:26:20.782Z,1.50
2022-12-05T16:28:58.871Z,2.30
2022-12-05T16:31:25.841Z,2.75
2022-12-05T16:34:15.739Z,1.92
2022-12-05T16:36:49.956Z,2.27
2022-12-05T16:39:19.583Z,2.30
2022-12-05T16:41:47.498Z,2.40
2022-12-05T16:44:42.312Z,1.90
2022-12-05T16:47:23.439Z,2.08
2022-12-05T16:49:50.000Z,1.70
2022-12-05T16:52:16.912Z,2.17
2022-12-05T16:54:47.696Z,1.85
2022-12-05T16:57:16.194Z,1.95
2022-12-05T16:59:43.696Z,1.90
2022-12-05T17:02:15.750Z,1.90
2022-12-05T17:04:42.994Z,2.00
2022-12-05T17:07:10.082Z,2.10
2022-12-05T17:09:36.795Z,1.90
2022-12-05T17:12:17.564Z,2.13
2022-12-05T17:14:44.118Z,1.80
2022-12-05T17:17:13.659Z,1.60
2022-12-05T17:19:40.145Z,2.05
2022-12-05T17:22:06.958Z,1.90
2022-12-05T17:24:33.530Z,1.90
2022-12-05T17:27:00.032Z,1.73
2022-12-05T17:29:31.077Z,1.48
2022-12-05T17:32:00.662Z,1.52
2022-12-05T17:34:27.357Z,1.77
2022-12-05T17:36:53.936Z,1.77
2022-12-05T17:39:26.481Z,2.37
2022-12-05T17:41:54.790Z,2.17
2022-12-05T17:44:22.117Z,2.10
2022-12-05T17:46:49.408Z,2.05
2022-12-05T17:49:17.936Z,2.40
2022-12-05T17:52:13.475Z,2.43
2022-12-05T17:54:31.471Z,2.35
2022-12-05T17:56:58.007Z,1.83
2022-12-05T17:59:25.719Z,2.97
2022-12-05T18:01:52.238Z,2.35
2022-12-05T18:04:22.888Z,2.30
2022-12-05T18:06:50.038Z,2.60
2022-12-05T18:09:16.599Z,2.20
2022-12-05T18:11:43.207Z,2.25
2022-12-05T18:14:10.461Z,2.03
2022-12-05T18:16:37.122Z,2.60
2022-12-05T18:19:04.039Z,2.33
2022-12-05T18:21:30.604Z,3.03
2022-12-05T18:23:57.117Z,2.95
2022-12-05T18:26:23.657Z,2.45
2022-12-05T18:28:51.622Z,2.00
2022-12-05T18:31:18.484Z,2.05
2022-12-05T18:33:46.356Z,2.15
2022-12-05T18:36:19.423Z,2.30
2022-12-05T18:38:55.369Z,2.72
2022-12-05T18:41:23.704Z,2.23
2022-12-05T18:43:50.496Z,2.60
2022-12-05T18:46:17.202Z,2.95
2022-12-05T18:48:47.453Z,2.70
2022-12-05T18:51:20.881Z,3.00
2022-12-05T18:53:52.832Z,3.13
2022-12-05T18:56:23.800Z,2.40
2022-12-05T18:58:58.267Z,2.25
2022-12-05T19:01:25.996Z,2.55
2022-12-05T19:03:53.082Z,2.90
2022-12-05T19:06:25.350Z,2.50
2022-12-05T19:08:57.303Z,2.20
2022-12-05T19:11:28.259Z,2.60
2022-12-05T19:14:00.108Z,2.22
2022-12-05T19:16:28.196Z,2.28
2022-12-05T19:18:57.631Z,2.03
2022-12-05T19:21:25.261Z,2.53
2022-12-05T19:23:51.981Z,2.75
2022-12-05T19:26:19.137Z,2.45
2022-12-05T19:28:45.663Z,2.08
2022-12-05T19:31:15.522Z,2.07
2022-12-05T19:33:44.932Z,2.60
2022-12-05T19:36:14.219Z,2.17
2022-12-05T19:38:43.031Z,2.30
2022-12-05T19:41:12.898Z,2.45
2022-12-05T19:43:39.658Z,2.50
2022-12-05T19:46:08.881Z,2.25
2022-12-05T19:48:35.886Z,2.50
2022-12-05T19:51:02.970Z,2.40
2022-12-05T19:53:33.038Z,3.03
2022-12-05T19:56:04.663Z,2.10
2022-12-05T19:58:32.665Z,2.40
2022-12-05T20:01:08.519Z,2.83
2022-12-05T20:03:35.361Z,2.42
2022-12-05T20:06:02.141Z,2.35
2022-12-05T20:08:28.660Z,2.23
2022-12-05T20:10:55.175Z,2.60
2022-12-05T20:13:46.041Z,2.17
2022-12-05T20:16:10.721Z,2.20
2022-12-05T20:18:39.923Z,2.35
2022-12-05T20:21:08.755Z,2.07
2022-12-05T20:23:35.532Z,2.10
2022-12-05T20:26:07.638Z,2.30
2022-12-05T20:28:34.978Z,2.20
2022-12-05T20:31:04.876Z,2.38
2022-12-05T20:33:31.429Z,1.77
2022-12-05T20:36:03.521Z,2.60
2022-12-05T20:38:30.528Z,2.65
2022-12-05T20:41:01.547Z,2.25
2022-12-05T20:43:28.701Z,2.60
2022-12-05T20:45:55.998Z,2.97
2022-12-05T20:48:26.049Z,2.60
2022-12-05T20:50:54.287Z,2.35
2022-12-05T20:53:21.704Z,2.22
2022-12-05T20:55:48.264Z,2.65
2022-12-05T20:58:14.743Z,2.83
2022-12-05T21:00:43.473Z,2.78
2022-12-05T21:03:15.704Z,2.40
2022-12-05T21:05:43.725Z,2.70
2022-12-05T21:08:10.318Z,2.78
2022-12-05T21:10:37.000Z,2.40
2022-12-05T21:13:03.503Z,2.92
2022-12-05T21:15:29.978Z,2.35
2022-12-05T21:17:56.816Z,2.85
2022-12-05T21:20:23.424Z,3.50
2022-12-05T21:22:50.019Z,2.77
2022-12-05T21:25:16.678Z,3.67
2022-12-05T21:27:43.258Z,2.80
2022-12-05T21:30:10.364Z,3.00
2022-12-05T21:32:37.016Z,3.00
2022-12-05T21:35:04.748Z,2.77
2022-12-05T21:37:31.275Z,2.47
2022-12-05T21:39:57.915Z,2.72
2022-12-05T21:42:24.673Z,3.08
2022-12-05T21:44:51.301Z,3.00
2022-12-05T21:47:17.863Z,2.83
2022-12-05T21:49:44.441Z,2.90
2022-12-05T21:52:10.942Z,3.53
2022-12-05T21:54:37.474Z,3.65
2022-12-05T21:57:04.247Z,2.70
2022-12-05T21:59:32.714Z,2.80
2022-12-05T22:02:00.063Z,3.17
2022-12-05T22:04:26.634Z,2.80
2022-12-05T22:06:53.152Z,3.15
2022-12-05T22:09:19.760Z,3.17
2022-12-05T22:11:46.378Z,3.07
2022-12-05T22:14:13.201Z,2.55
2022-12-05T22:16:39.755Z,2.97
2022-12-05T22:19:06.450Z,3.40
2022-12-05T22:21:34.338Z,2.70
2022-12-05T22:24:01.254Z,2.67
2022-12-05T22:26:27.822Z,2.70
2022-12-05T22:28:55.997Z,2.75
2022-12-05T22:31:24.024Z,2.50
2022-12-05T22:33:51.127Z,2.60
2022-12-05T22:36:19.129Z,2.40
2022-12-05T22:38:47.362Z,2.70
2022-12-05T22:41:16.406Z,2.63
2022-12-05T22:43:45.495Z,2.28
2022-12-05T22:46:15.297Z,3.17
2022-12-05T22:48:41.876Z,2.27
2022-12-05T22:51:09.356Z,2.40
2022-12-05T22:53:37.113Z,2.20
2022-12-05T22:56:05.736Z,2.85
2022-12-05T22:58:32.876Z,2.15
2022-12-05T23:01:09.626Z,2.43
2022-12-05T23:03:36.296Z,2.63
2022-12-05T23:06:08.285Z,2.33
2022-12-05T23:08:38.820Z,2.58
2022-12-05T23:11:06.990Z,2.83
2022-12-05T23:13:35.036Z,2.17
2022-12-05T23:16:23.423Z,2.72
2022-12-05T23:18:50.987Z,2.25
2022-12-05T23:21:19.442Z,1.88
2022-12-05T23:23:47.538Z,2.30
2022-12-05T23:26:15.129Z,2.07
2022-12-05T23:28:41.707Z,2.33
2022-12-05T23:31:10.166Z,2.00
2022-12-05T23:33:37.573Z,1.73
2022-12-05T23:36:04.919Z,1.75
2022-12-05T23:38:31.465Z,1.80
2022-12-05T23:41:00.205Z,1.67
2022-12-05T23:43:27.422Z,1.33
2022-12-05T23:45:54.020Z,1.70
2022-12-05T23:48:20.580Z,2.22
2022-12-05T23:51:08.005Z,1.07
2022-12-05T23:53:37.311Z,1.55
2022-12-05T23:56:11.982Z,1.00
2022-12-05T23:58:38.836Z,1.75
